Tinsdal — V2AJ2 — position and weather

sailwx.info

Track history (hours):
 
Tides and Currents Weather Stations Pressure Air Temp Water Temp Dewpoint Dewpoint Depression Visibility Wind Speed Wind Dir Waves Ship Positions

Tinsdal

Last reported at 2015-Jan-29 03:13 UTC. Time now 2015-Jan-31 10:13 UTC.
Position N 38°57' W 009°50'.

Length 90 m; draft 4.8 m.

Type: Cargo ship. MMSI: 305573000.

Date/timePositionNaut miles runAvg speedWind from/ knotsBaromVisibWave heightAir tempDewpointWater temp
2015-Jan-29 03:13N 38°57' W 009°50'7 9.2
2015-Jan-29 02:26N 38°50' W 009°50'8 9.1
2015-Jan-29 01:33N 38°42' W 009°50'9 8.5
2015-Jan-29 00:30N 38°35' W 009°42'8 8.2
2015-Jan-28 23:32N 38°30' W 009°34'9 9.0
2015-Jan-28 22:33N 38°26' W 009°24'9 9.1
2015-Jan-28 21:33N 38°21' W 009°14'9 9.3
2015-Jan-28 20:33N 38°24' W 009°03'10 9.3
2015-Jan-28 19:25N 38°31' W 008°53'0 0.2
2015-Jan-28 18:08N 38°31' W 008°53'0 0.0
2015-Jan-28 17:32N 38°31' W 008°53'0 0.0
2015-Jan-28 16:26N 38°31' W 008°53'0 0.0
2015-Jan-28 15:05N 38°31' W 008°53'0 0.0
2015-Jan-28 14:32N 38°31' W 008°53'0 0.0
2015-Jan-28 13:20N 38°31' W 008°53'0 0.0
2015-Jan-28 12:14N 38°31' W 008°53'0 0.0
2015-Jan-28 11:14N 38°31' W 008°53'0 0.0
2015-Jan-28 09:26N 38°31' W 008°53'0 0.0
2015-Jan-28 08:23N 38°31' W 008°53'0 0.0
2015-Jan-28 07:20N 38°31' W 008°53'0 0.0
2015-Jan-28 06:32N 38°31' W 008°53'0 0.0
2015-Jan-28 05:26N 38°31' W 008°53'0 0.0
2015-Jan-28 03:26N 38°31' W 008°53'0 0.0
2015-Jan-28 02:20N 38°31' W 008°53'0 0.0
2015-Jan-27 23:28N 38°31' W 008°53'5 5.7
2015-Jan-27 22:33N 38°27' W 008°58'9 9.0
2015-Jan-27 21:33N 38°19' W 009°01'10 9.3
2015-Jan-27 20:32N 38°10' W 009°03'9 8.7
2015-Jan-27 19:33N 38°01' W 009°05'9 8.6
2015-Jan-27 18:33N 37°53' W 009°07'9 8.8
2015-Jan-27 17:33N 37°44' W 009°10'9 8.9
2015-Jan-27 16:33N 37°35' W 009°12'9 8.7
2015-Jan-27 15:33N 37°27' W 009°14'61 6.5
2015-Jan-27 06:13N 36°35' W 008°33'6 9.3
2015-Jan-27 05:32N 36°33' W 008°25'147 9.2
2015-Jan-26 13:29N 35°59' W 005°28'6 6.6
2015-Jan-26 12:33N 35°59' W 005°20'5 5.0
2015-Jan-26 11:31N 35°54' W 005°19'0 0.0
2015-Jan-26 10:31N 35°54' W 005°19'0 0.0
2015-Jan-26 09:31N 35°54' W 005°19'0 0.0
2015-Jan-26 08:31N 35°54' W 005°19'0 0.0
2015-Jan-26 07:31N 35°54' W 005°19'1 0.7
2015-Jan-26 06:33N 35°55' W 005°19'0 0.1
2015-Jan-26 05:33N 35°55' W 005°19'0 0.0
2015-Jan-26 04:33N 35°55' W 005°19'0 0.0
2015-Jan-26 03:33N 35°55' W 005°19'0 0.0
2015-Jan-26 02:33N 35°55' W 005°19'0 0.0
2015-Jan-26 01:33N 35°55' W 005°19'0 0.2
2015-Jan-26 00:33N 35°55' W 005°19'2 1.7
2015-Jan-25 23:33N 35°55' W 005°17'404 8.7
2015-Jan-24 01:13N 38°48' E 002°23'14 8.1
2015-Jan-23 23:32N 38°53' E 002°39'9 8.6
2015-Jan-23 22:32N 38°56' E 002°49'9 8.8
2015-Jan-23 21:33N 38°60' E 002°60'9 8.8
2015-Jan-23 20:33N 39°04' E 003°09'9 9.2
2015-Jan-23 19:32N 39°09' E 003°20'9 9.1
2015-Jan-23 18:33N 39°15' E 003°28'10 9.3
2015-Jan-23 17:26N 39°22' E 003°38'  
2015-Jan-19 23:23N 42°54' E 010°35'22 2.2
2015-Jan-19 13:13N 42°38' E 010°15'26 9.6
2015-Jan-19 10:32N 42°54' E 009°48'  
Track history (hours):
 
Tides and Currents Weather Stations Pressure Air Temp Water Temp Dewpoint Dewpoint Depression Visibility Wind Speed Wind Dir Waves Ship Positions

Tinsdal

Last reported at 2015-Jan-29 03:13 UTC. Time now 2015-Jan-31 10:13 UTC.
Position N 38°57' W 009°50'.

Length 90 m; draft 4.8 m.

Type: Cargo ship. MMSI: 305573000.

Date/timePositionNaut miles runAvg speedWind from/ knotsBaromVisibWave heightAir tempDewpointWater temp
2015-Jan-29 03:13N 38°57' W 009°50'7 9.2
2015-Jan-29 02:26N 38°50' W 009°50'8 9.1
2015-Jan-29 01:33N 38°42' W 009°50'9 8.5
2015-Jan-29 00:30N 38°35' W 009°42'8 8.2
2015-Jan-28 23:32N 38°30' W 009°34'9 9.0
2015-Jan-28 22:33N 38°26' W 009°24'9 9.1
2015-Jan-28 21:33N 38°21' W 009°14'9 9.3
2015-Jan-28 20:33N 38°24' W 009°03'10 9.3
2015-Jan-28 19:25N 38°31' W 008°53'0 0.2
2015-Jan-28 18:08N 38°31' W 008°53'0 0.0
2015-Jan-28 17:32N 38°31' W 008°53'0 0.0
2015-Jan-28 16:26N 38°31' W 008°53'0 0.0
2015-Jan-28 15:05N 38°31' W 008°53'0 0.0
2015-Jan-28 14:32N 38°31' W 008°53'0 0.0
2015-Jan-28 13:20N 38°31' W 008°53'0 0.0
2015-Jan-28 12:14N 38°31' W 008°53'0 0.0
2015-Jan-28 11:14N 38°31' W 008°53'0 0.0
2015-Jan-28 09:26N 38°31' W 008°53'0 0.0
2015-Jan-28 08:23N 38°31' W 008°53'0 0.0
2015-Jan-28 07:20N 38°31' W 008°53'0 0.0
2015-Jan-28 06:32N 38°31' W 008°53'0 0.0
2015-Jan-28 05:26N 38°31' W 008°53'0 0.0
2015-Jan-28 03:26N 38°31' W 008°53'0 0.0
2015-Jan-28 02:20N 38°31' W 008°53'0 0.0
2015-Jan-27 23:28N 38°31' W 008°53'5 5.7
2015-Jan-27 22:33N 38°27' W 008°58'9 9.0
2015-Jan-27 21:33N 38°19' W 009°01'10 9.3
2015-Jan-27 20:32N 38°10' W 009°03'9 8.7
2015-Jan-27 19:33N 38°01' W 009°05'9 8.6
2015-Jan-27 18:33N 37°53' W 009°07'9 8.8
2015-Jan-27 17:33N 37°44' W 009°10'9 8.9
2015-Jan-27 16:33N 37°35' W 009°12'9 8.7
2015-Jan-27 15:33N 37°27' W 009°14'61 6.5
2015-Jan-27 06:13N 36°35' W 008°33'6 9.3
2015-Jan-27 05:32N 36°33' W 008°25'147 9.2
2015-Jan-26 13:29N 35°59' W 005°28'6 6.6
2015-Jan-26 12:33N 35°59' W 005°20'5 5.0
2015-Jan-26 11:31N 35°54' W 005°19'0 0.0
2015-Jan-26 10:31N 35°54' W 005°19'0 0.0
2015-Jan-26 09:31N 35°54' W 005°19'0 0.0
2015-Jan-26 08:31N 35°54' W 005°19'0 0.0
2015-Jan-26 07:31N 35°54' W 005°19'1 0.7
2015-Jan-26 06:33N 35°55' W 005°19'0 0.1
2015-Jan-26 05:33N 35°55' W 005°19'0 0.0
2015-Jan-26 04:33N 35°55' W 005°19'0 0.0
2015-Jan-26 03:33N 35°55' W 005°19'0 0.0
2015-Jan-26 02:33N 35°55' W 005°19'0 0.0
2015-Jan-26 01:33N 35°55' W 005°19'0 0.2
2015-Jan-26 00:33N 35°55' W 005°19'2 1.7
2015-Jan-25 23:33N 35°55' W 005°17'404 8.7
2015-Jan-24 01:13N 38°48' E 002°23'14 8.1
2015-Jan-23 23:32N 38°53' E 002°39'9 8.6
2015-Jan-23 22:32N 38°56' E 002°49'9 8.8
2015-Jan-23 21:33N 38°60' E 002°60'9 8.8
2015-Jan-23 20:33N 39°04' E 003°09'9 9.2
2015-Jan-23 19:32N 39°09' E 003°20'9 9.1
2015-Jan-23 18:33N 39°15' E 003°28'10 9.3
2015-Jan-23 17:26N 39°22' E 003°38'  
2015-Jan-19 23:23N 42°54' E 010°35'22 2.2
2015-Jan-19 13:13N 42°38' E 010°15'26 9.6
2015-Jan-19 10:32N 42°54' E 009°48'  

Dump ship's entire track history